Terminal Aerodrome Forecast
Issued by NWS Grand Forks, ND

Home | Current Version | Previous Version | Text Only | Print | Product List | Glossary On
Versions: 1 2 3 4 5 6 7 8 9 10 11 12 13 14 15 16 17 18 19 20 21 22 23 24 25 26 27 28 29 30 31 32 33 34 35 36 37 38 39 40 41 42 43 44 45 46 47 48 49 50
021
FTUS43 KFGF 162335
TAFFAR
TAF
KFAR 162335Z 1700/1724 VRB04KT P6SM BKN180
     FM171000 VRB04KT P6SM VCSH OVC070
     FM171500 14009KT P6SM OVC070
     FM172100 20007KT P6SM VCSH BKN060
     FM172300 22007KT P6SM SCT060=

USA.gov is the U.S. government's official web portal to all federal, state and local government web resources and services.